Time;durP1;ratioP1;P1;durP2;ratioP2;P2;SDS_P1;SDS_P2;PMS_P1;PMS_P2;Temp;Humidity;BMP_temperature;BMP_pressure;BME280_temperature;BME280_humidity;BME280_pressure;Samples;Min_cycle;Max_cycle;Signal;HPM_P1;HPM_P2
2023/08/13 00:00:15;;;;;;;8.45;2.50;;;17.90;1.00;;;;;;20876275;28;21202;-41
2023/08/13 00:10:16;;;;;;;13.02;2.70;;;17.70;1.00;;;;;;20877495;28;20067;-41
2023/08/13 00:20:17;;;;;;;9.43;2.40;;;17.70;1.00;;;;;;20874133;28;20112;-41
2023/08/13 00:30:18;;;;;;;7.68;1.80;;;17.60;1.00;;;;;;20874305;28;20046;-41
2023/08/13 00:40:18;;;;;;;9.35;2.15;;;17.60;1.00;;;;;;20874772;28;20041;-41
2023/08/13 00:50:19;;;;;;;9.43;1.80;;;17.50;1.00;;;;;;20868661;28;20048;-41
2023/08/13 01:00:19;;;;;;;8.27;2.00;;;17.50;1.00;;;;;;20867701;28;20103;-41
2023/08/13 01:10:27;;;;;;;10.47;2.10;;;17.50;1.00;;;;;;20867476;28;20068;-41
2023/08/13 01:20:32;;;;;;;9.88;2.25;;;17.40;1.00;;;;;;20867186;28;20493;-41
2023/08/13 01:30:46;;;;;;;9.82;2.60;;;17.30;1.00;;;;;;20865225;28;20049;-41
2023/08/13 01:40:49;;;;;;;10.43;2.60;;;17.30;1.00;;;;;;20866403;28;24316;-41
2023/08/13 01:50:50;;;;;;;9.63;2.63;;;17.30;1.00;;;;;;20864266;28;20033;-41
2023/08/13 02:00:50;;;;;;;9.98;3.13;;;17.20;1.00;;;;;;20864294;28;20033;-41
2023/08/13 02:10:51;;;;;;;8.65;2.95;;;17.30;1.00;;;;;;20863530;28;20045;-41
2023/08/13 02:20:51;;;;;;;8.95;2.83;;;17.30;1.00;;;;;;20861895;28;20044;-41
2023/08/13 02:41:02;;;;;;;7.97;2.88;;;17.10;1.00;;;;;;20821581;23;20059;-42
2023/08/13 02:51:03;;;;;;;9.63;2.50;;;17.00;1.00;;;;;;20793012;28;20037;-41
2023/08/13 03:01:03;;;;;;;8.32;2.58;;;17.00;1.00;;;;;;20773208;28;20037;-42
2023/08/13 03:11:04;;;;;;;9.02;2.72;;;16.90;1.00;;;;;;20791101;28;20045;-41
2023/08/13 03:21:05;;;;;;;9.63;2.92;;;16.80;1.00;;;;;;20781138;28;20500;-43
2023/08/13 03:31:05;;;;;;;9.57;2.70;;;16.70;8.50;;;;;;20785291;28;20045;-44
2023/08/13 03:41:06;;;;;;;8.27;2.83;;;16.90;8.30;;;;;;20764059;28;20053;-44
2023/08/13 03:51:06;;;;;;;7.55;2.45;;;16.80;9.80;;;;;;20763507;28;20076;-40
2023/08/13 04:01:07;;;;;;;6.00;2.33;;;16.70;10.70;;;;;;20773356;28;20495;-44
2023/08/13 04:11:08;;;;;;;8.25;2.35;;;16.60;15.90;;;;;;20751698;28;20056;-43
2023/08/13 04:21:09;;;;;;;8.87;2.67;;;16.60;17.60;;;;;;20699741;28;20038;-44
2023/08/13 04:31:09;;;;;;;9.02;2.35;;;16.60;18.80;;;;;;20683100;28;20404;-44
2023/08/13 04:41:10;;;;;;;11.75;3.05;;;16.50;29.00;;;;;;20698556;28;20324;-44
2023/08/13 04:51:11;;;;;;;9.90;3.08;;;16.50;39.70;;;;;;20716784;28;20465;-44
2023/08/13 05:01:12;;;;;;;11.60;2.92;;;16.40;68.50;;;;;;20774391;28;20044;-44
2023/08/13 05:11:12;;;;;;;8.57;2.13;;;16.50;73.40;;;;;;20771982;28;20572;-44
2023/08/13 05:21:13;;;;;;;9.15;2.50;;;16.50;87.10;;;;;;20742199;28;20033;-44
2023/08/13 05:31:13;;;;;;;11.50;2.45;;;16.50;87.20;;;;;;20687160;28;20065;-43
2023/08/13 05:41:14;;;;;;;9.23;2.85;;;16.50;90.10;;;;;;20707410;28;20041;-43
2023/08/13 05:51:15;;;;;;;12.48;2.85;;;16.70;90.20;;;;;;20775034;28;20041;-43
2023/08/13 06:01:15;;;;;;;9.40;2.83;;;17.10;60.30;;;;;;20703689;28;20034;-44
2023/08/13 06:11:16;;;;;;;8.50;2.63;;;17.50;28.50;;;;;;20708838;28;20046;-43
2023/08/13 06:21:16;;;;;;;8.55;2.72;;;17.70;18.60;;;;;;20731801;28;20041;-44
2023/08/13 06:31:17;;;;;;;10.52;2.88;;;17.80;15.10;;;;;;20774333;28;20042;-43
2023/08/13 06:41:17;;;;;;;9.38;2.40;;;18.00;6.90;;;;;;20739463;28;20045;-44
2023/08/13 06:51:18;;;;;;;10.07;2.47;;;18.10;7.10;;;;;;20790101;28;20499;-44
2023/08/13 07:01:18;;;;;;;7.35;2.63;;;18.20;1.50;;;;;;20783815;28;20041;-44
2023/08/13 07:11:19;;;;;;;7.70;2.33;;;18.30;4.80;;;;;;20777209;28;20119;-44
2023/08/13 07:21:20;;;;;;;10.48;2.70;;;18.50;1.00;;;;;;20781538;28;20044;-44
2023/08/13 07:31:20;;;;;;;7.28;1.70;;;18.70;1.00;;;;;;20739757;28;20045;-44
2023/08/13 07:41:21;;;;;;;7.43;2.33;;;18.90;1.00;;;;;;20696829;28;20057;-43
2023/08/13 07:51:21;;;;;;;12.18;2.50;;;19.30;1.00;;;;;;20695818;28;20519;-43
2023/08/13 08:01:23;;;;;;;10.73;2.15;;;19.70;1.00;;;;;;20740131;28;20484;-44
2023/08/13 08:11:23;;;;;;;8.73;1.90;;;19.90;1.00;;;;;;20755886;28;20046;-44
2023/08/13 08:21:24;;;;;;;7.57;1.58;;;20.20;1.00;;;;;;20752521;28;20329;-44
2023/08/13 08:31:24;;;;;;;5.43;1.50;;;20.40;1.00;;;;;;20677703;28;20045;-44
2023/08/13 08:41:31;;;;;;;7.43;1.50;;;20.50;1.00;;;;;;20755566;28;20049;-44
2023/08/13 08:51:33;;;;;;;7.20;1.60;;;20.60;1.00;;;;;;20754301;28;20591;-43
2023/08/13 09:01:34;;;;;;;3.53;1.00;;;20.70;1.00;;;;;;20761971;28;20461;-43
2023/08/13 09:11:35;;;;;;;5.03;1.45;;;20.50;1.00;;;;;;20701136;28;20068;-44
2023/08/13 09:21:35;;;;;;;6.90;1.33;;;20.40;1.00;;;;;;20700044;28;20100;-43
2023/08/13 09:31:36;;;;;;;4.80;1.27;;;20.10;1.00;;;;;;20697654;28;20050;-43
2023/08/13 09:41:37;;;;;;;4.78;1.48;;;20.20;1.00;;;;;;20688905;28;20049;-43
2023/08/13 09:51:43;;;;;;;6.63;1.88;;;20.60;1.00;;;;;;20709461;28;20049;-43
2023/08/13 10:01:44;;;;;;;9.02;2.08;;;21.10;1.00;;;;;;20707342;28;20133;-43
2023/08/13 10:11:45;;;;;;;5.15;1.90;;;21.30;1.00;;;;;;20694662;28;20048;-43
2023/08/13 10:21:58;;;;;;;7.63;1.43;;;21.20;1.00;;;;;;20728134;28;20038;-44
2023/08/13 10:32:01;;;;;;;6.13;1.40;;;21.20;1.00;;;;;;20711759;28;20037;-44
2023/08/13 10:42:22;;;;;;;5.75;1.00;;;21.30;1.00;;;;;;20743942;28;20562;-44
2023/08/13 10:52:29;;;;;;;3.90;0.80;;;21.60;1.00;;;;;;20736652;28;20041;-43
2023/08/13 11:02:31;;;;;;;3.00;0.80;;;21.60;1.00;;;;;;20758544;28;20072;-44
2023/08/13 11:12:32;;;;;;;4.72;0.82;;;21.40;1.00;;;;;;20770859;28;20069;-43
2023/08/13 11:22:32;;;;;;;3.58;0.80;;;21.20;1.00;;;;;;20754955;28;20034;-44
2023/08/13 11:32:35;;;;;;;3.78;0.95;;;22.20;1.00;;;;;;20759959;28;20045;-44
2023/08/13 11:42:35;;;;;;;3.22;0.75;;;23.00;1.00;;;;;;20701750;28;20494;-43
2023/08/13 11:52:36;;;;;;;5.65;1.80;;;22.80;1.00;;;;;;20694508;28;20500;-43
2023/08/13 12:02:37;;;;;;;6.60;1.38;;;23.10;1.00;;;;;;20709568;28;20389;-43
2023/08/13 12:12:38;;;;;;;5.95;1.45;;;22.80;1.00;;;;;;20715260;28;20121;-44
2023/08/13 12:22:39;;;;;;;7.18;1.98;;;22.40;1.00;;;;;;20717676;28;20045;-43
2023/08/13 12:32:40;;;;;;;6.97;2.45;;;22.10;1.00;;;;;;20713016;28;20057;-44
2023/08/13 12:42:40;;;;;;;9.18;2.88;;;21.90;1.00;;;;;;20702949;28;20092;-43
2023/08/13 12:52:42;;;;;;;9.70;2.67;;;22.00;1.00;;;;;;20703651;28;20053;-43
2023/08/13 13:02:42;;;;;;;9.68;2.67;;;22.30;1.00;;;;;;20719153;28;20048;-43
2023/08/13 13:12:44;;;;;;;8.60;3.25;;;22.40;1.00;;;;;;20732118;28;20057;-43
2023/08/13 13:22:44;;;;;;;8.75;2.78;;;22.40;1.00;;;;;;20712805;28;20129;-44
2023/08/13 13:32:45;;;;;;;10.38;2.83;;;22.10;1.00;;;;;;20678327;28;20042;-43
2023/08/13 13:42:46;;;;;;;10.80;2.72;;;21.70;1.00;;;;;;20680527;28;20472;-43
2023/08/13 13:52:47;;;;;;;2.30;0.75;;;21.50;1.00;;;;;;20724981;28;20103;-43
2023/08/13 14:02:48;;;;;;;1.80;0.30;;;21.60;1.00;;;;;;20722716;28;20119;-44
2023/08/13 14:12:48;;;;;;;2.92;0.50;;;21.50;1.00;;;;;;20726160;28;20030;-44
2023/08/13 14:22:49;;;;;;;1.77;0.40;;;21.70;1.00;;;;;;20733998;28;20486;-43
2023/08/13 14:32:49;;;;;;;2.28;0.77;;;22.30;1.00;;;;;;20704264;28;20057;-43
2023/08/13 14:42:50;;;;;;;1.33;0.63;;;22.90;1.00;;;;;;20727614;28;20056;-43
2023/08/13 14:52:51;;;;;;;3.78;0.85;;;22.70;1.00;;;;;;20765078;28;20052;-44
2023/08/13 15:02:51;;;;;;;1.83;0.80;;;22.60;1.00;;;;;;20727848;28;20535;-43
2023/08/13 15:12:52;;;;;;;3.53;0.70;;;22.80;1.00;;;;;;20719644;28;20097;-44
2023/08/13 15:22:52;;;;;;;1.63;0.55;;;22.90;1.00;;;;;;20723879;28;20053;-43
2023/08/13 15:32:53;;;;;;;2.13;0.60;;;23.00;1.00;;;;;;20714615;28;20048;-44
2023/08/13 15:42:53;;;;;;;1.73;0.50;;;23.10;1.00;;;;;;20726987;28;20054;-44
2023/08/13 15:52:54;;;;;;;2.67;0.60;;;22.70;1.00;;;;;;20732153;28;20061;-44
2023/08/13 16:02:56;;;;;;;1.23;0.30;;;22.70;1.00;;;;;;20717715;28;20068;-44
2023/08/13 16:12:56;;;;;;;1.25;0.50;;;22.50;1.00;;;;;;20675713;28;20301;-44
2023/08/13 16:22:57;;;;;;;2.65;0.70;;;22.50;1.00;;;;;;20703283;28;20112;-44
2023/08/13 16:32:59;;;;;;;1.65;0.60;;;22.50;1.00;;;;;;20702357;28;20045;-43
2023/08/13 16:42:59;;;;;;;1.50;0.45;;;22.50;1.00;;;;;;20706160;28;20077;-44
2023/08/13 16:53:00;;;;;;;3.15;0.90;;;22.30;1.00;;;;;;20735560;28;20047;-43
2023/08/13 17:03:00;;;;;;;6.03;2.30;;;22.20;1.00;;;;;;20681636;28;20489;-43
2023/08/13 17:13:01;;;;;;;4.82;2.00;;;21.90;1.00;;;;;;20649975;28;20345;-44
2023/08/13 17:23:02;;;;;;;1.48;0.57;;;21.70;1.00;;;;;;20631528;28;20045;-43
2023/08/13 17:33:03;;;;;;;2.95;0.60;;;21.70;1.00;;;;;;20642777;28;20685;-44
2023/08/13 17:43:03;;;;;;;1.92;0.70;;;21.60;1.00;;;;;;20645062;28;20056;-43
2023/08/13 17:53:04;;;;;;;1.50;0.50;;;21.30;1.00;;;;;;20640684;28;20124;-43
2023/08/13 18:03:04;;;;;;;2.35;0.77;;;21.00;1.00;;;;;;20652897;28;20050;-43
2023/08/13 18:13:05;;;;;;;2.00;0.90;;;20.80;1.00;;;;;;20638374;28;20927;-43
2023/08/13 18:23:05;;;;;;;2.42;0.90;;;20.60;1.00;;;;;;20640696;28;20084;-43
2023/08/13 18:33:06;;;;;;;1.73;0.93;;;20.50;1.00;;;;;;20636222;28;20049;-44
2023/08/13 18:43:07;;;;;;;3.03;1.10;;;20.30;1.00;;;;;;20648160;28;20049;-43
2023/08/13 18:53:07;;;;;;;3.08;1.20;;;20.30;1.00;;;;;;20635721;28;20045;-43
2023/08/13 19:03:09;;;;;;;6.17;3.93;;;20.00;1.00;;;;;;20623997;28;20045;-43
2023/08/13 19:13:09;;;;;;;2.45;1.30;;;19.70;1.00;;;;;;20642336;28;20046;-43
2023/08/13 19:23:13;;;;;;;4.03;1.20;;;19.40;1.00;;;;;;20679923;28;20038;-43
2023/08/13 19:33:13;;;;;;;3.53;1.88;;;19.10;1.00;;;;;;20672624;28;20137;-43
2023/08/13 19:43:14;;;;;;;5.78;3.17;;;18.80;1.00;;;;;;20671717;28;20050;-44
2023/08/13 19:53:14;;;;;;;4.37;2.00;;;18.60;1.00;;;;;;20632080;28;20041;-43
2023/08/13 20:03:16;;;;;;;6.35;2.40;;;18.30;1.00;;;;;;20637844;28;20497;-43
2023/08/13 20:13:17;;;;;;;4.25;2.03;;;18.20;1.00;;;;;;20641810;28;20386;-43
2023/08/13 20:23:18;;;;;;;3.67;1.65;;;18.00;1.00;;;;;;20645530;28;20176;-43
2023/08/13 20:33:18;;;;;;;6.13;2.10;;;17.80;1.00;;;;;;20637826;28;20087;-43
2023/08/13 20:43:19;;;;;;;4.43;1.70;;;17.70;1.00;;;;;;20659443;28;20046;-43
2023/08/13 20:53:20;;;;;;;4.35;1.73;;;17.60;1.00;;;;;;20702690;28;20042;-43
2023/08/13 21:03:21;;;;;;;3.72;2.00;;;17.50;1.00;;;;;;20693093;28;20049;-43
2023/08/13 21:13:22;;;;;;;9.25;2.25;;;17.40;1.00;;;;;;20675533;28;20085;-43
2023/08/13 21:23:22;;;;;;;5.37;2.43;;;17.40;1.00;;;;;;20676153;28;20038;-43
2023/08/13 21:33:23;;;;;;;6.50;2.90;;;17.40;2.80;;;;;;20642820;28;20433;-43
2023/08/13 21:43:23;;;;;;;6.57;2.65;;;17.40;1.00;;;;;;20678525;28;20509;-43
2023/08/13 21:53:24;;;;;;;6.90;2.88;;;17.50;1.00;;;;;;20662421;28;20058;-43
2023/08/13 22:03:25;;;;;;;5.73;2.50;;;17.50;1.00;;;;;;20661108;28;20438;-43
2023/08/13 22:13:26;;;;;;;4.38;2.40;;;17.40;1.00;;;;;;20678384;28;21018;-43
2023/08/13 22:23:27;;;;;;;3.67;2.05;;;17.30;1.00;;;;;;20665853;28;20132;-43
2023/08/13 22:33:27;;;;;;;5.38;2.58;;;17.20;1.00;;;;;;20669112;28;20506;-43
2023/08/13 22:43:28;;;;;;;4.68;2.13;;;17.10;8.20;;;;;;20673510;28;20041;-43
2023/08/13 22:53:29;;;;;;;3.75;2.35;;;17.10;8.20;;;;;;20676578;28;21524;-43
2023/08/13 23:03:29;;;;;;;5.75;2.58;;;17.00;12.20;;;;;;20689818;28;20173;-43
2023/08/13 23:13:30;;;;;;;7.68;2.92;;;16.90;17.20;;;;;;20693761;28;20378;-43
2023/08/13 23:23:30;;;;;;;7.30;3.10;;;16.80;26.20;;;;;;20691994;28;20382;-43
2023/08/13 23:33:31;;;;;;;4.75;3.00;;;16.80;29.40;;;;;;20697126;28;20041;-44
2023/08/13 23:43:31;;;;;;;5.93;3.35;;;16.80;28.70;;;;;;20680872;28;20048;-43
2023/08/13 23:53:32;;;;;;;7.38;3.65;;;16.80;39.20;;;;;;20668463;28;20045;-43
